Windsor Airport
CYQG : now visible

Airfield :











YOU CAN JOIN US ON...

 
LOGIN :

Register | Disclaimer

   EN    FR    IT 

 









Legend :    VFR   Marginal VFR   IFR   Intensive IFR   Very Intensive IFR
Visi :
Ceiling :
>= 8 km
>= 3000ft
5 to 8 km
1000 to 3000 ft
1500m to 5 km
500 to 1000 ft
800 to 1500m
200 to 500 ft
< 800m
< 200 ft
Symbols :   Thunderstorms  Fog  Heavy snow  Heavy precipitations  Wind > 20 kt






- Airport Elevation : 622 ft
- IATA code : YQG


CYQG - Windsor

CURRENT METAR :
  • 021700Z AUTO 26010KT 230V300 9SM SCT066 BKN078 26/12 A3000 RMK SLP160 DENSITY ALT 2000FT

EXPIRED METARs :
  • 021600Z AUTO 24007KT 230V300 9SM CLR 26/13 A3001 RMK SLP161 DENSITY ALT 1900FT
  • 021500Z AUTO 30007KT 230V330 9SM CLR 25/14 A3001 RMK SLP161 DENSITY ALT 1900FT

TAF TAF CYQG
Valid from the 02 at 18:00 until the 03 at 18:00 UTC


021740Z 0218/0318 28010KT P6SM SCT060
FM030000 33010KT P6SM SCT230
BECMG 0304/0306 03006KT
FM030800 05006KT P6SM BKN150 RMK FCST BASED ON AUTO OBS. NXT FCST BY 030000Z
CZYZ FIR / North America



MET'MAP, your aeronautical weather chart ! - Copyright ORBIFLY December 2007 - Disclaimer

ORBIFLY MET'MAP TEAM :

Programming & Development : Alexandra Zaïnal
Original concept : Baudouin d'Aumeries
Technical & hardware support : Manuel Goepfert
Assistance : Marc-Olivier Méhu




SOURCES & CREDITS :

   NOAA       Earth
Advisory